sensor_id;sensor_type;location;lat;lon;timestamp;P1;durP1;ratioP1;P2;durP2;ratioP2
25073;SDS011;13066;52.042;5.648;2022-08-19T00:01:27;8.30;;;5.50;;
25073;SDS011;13066;52.042;5.648;2022-08-19T00:03:57;9.45;;;6.32;;
25073;SDS011;13066;52.042;5.648;2022-08-19T00:06:26;9.05;;;5.80;;
25073;SDS011;13066;52.042;5.648;2022-08-19T00:08:56;8.43;;;5.68;;
25073;SDS011;13066;52.042;5.648;2022-08-19T00:11:26;9.38;;;5.18;;
25073;SDS011;13066;52.042;5.648;2022-08-19T00:13:55;7.72;;;4.63;;
25073;SDS011;13066;52.042;5.648;2022-08-19T00:16:23;7.93;;;4.78;;
25073;SDS011;13066;52.042;5.648;2022-08-19T00:18:52;6.75;;;5.03;;
25073;SDS011;13066;52.042;5.648;2022-08-19T00:21:21;7.45;;;4.78;;
25073;SDS011;13066;52.042;5.648;2022-08-19T00:23:51;5.38;;;4.75;;
25073;SDS011;13066;52.042;5.648;2022-08-19T00:26:20;11.88;;;5.45;;
25073;SDS011;13066;52.042;5.648;2022-08-19T00:28:48;6.63;;;4.93;;
25073;SDS011;13066;52.042;5.648;2022-08-19T00:31:16;6.35;;;5.03;;
25073;SDS011;13066;52.042;5.648;2022-08-19T00:33:45;7.72;;;5.32;;
25073;SDS011;13066;52.042;5.648;2022-08-19T00:36:14;9.32;;;5.20;;
25073;SDS011;13066;52.042;5.648;2022-08-19T00:38:42;6.85;;;5.30;;
25073;SDS011;13066;52.042;5.648;2022-08-19T00:41:12;8.68;;;5.60;;
25073;SDS011;13066;52.042;5.648;2022-08-19T00:43:42;7.35;;;5.30;;
25073;SDS011;13066;52.042;5.648;2022-08-19T00:46:23;7.32;;;5.38;;
25073;SDS011;13066;52.042;5.648;2022-08-19T00:48:51;10.77;;;5.63;;
25073;SDS011;13066;52.042;5.648;2022-08-19T00:51:19;12.27;;;6.28;;
25073;SDS011;13066;52.042;5.648;2022-08-19T00:53:48;6.82;;;5.45;;
25073;SDS011;13066;52.042;5.648;2022-08-19T00:56:17;7.53;;;5.60;;
25073;SDS011;13066;52.042;5.648;2022-08-19T00:58:46;8.27;;;5.43;;
25073;SDS011;13066;52.042;5.648;2022-08-19T01:01:14;6.43;;;5.43;;
25073;SDS011;13066;52.042;5.648;2022-08-19T01:03:42;7.75;;;5.28;;
25073;SDS011;13066;52.042;5.648;2022-08-19T01:06:23;8.60;;;5.40;;
25073;SDS011;13066;52.042;5.648;2022-08-19T01:08:53;6.53;;;5.40;;
25073;SDS011;13066;52.042;5.648;2022-08-19T01:11:23;10.80;;;5.78;;
25073;SDS011;13066;52.042;5.648;2022-08-19T01:13:52;9.70;;;5.57;;
25073;SDS011;13066;52.042;5.648;2022-08-19T01:16:21;6.22;;;4.97;;
25073;SDS011;13066;52.042;5.648;2022-08-19T01:18:52;7.15;;;5.65;;
25073;SDS011;13066;52.042;5.648;2022-08-19T01:21:22;8.55;;;5.57;;
25073;SDS011;13066;52.042;5.648;2022-08-19T01:26:24;6.55;;;5.80;;
25073;SDS011;13066;52.042;5.648;2022-08-19T01:28:55;9.48;;;6.15;;
25073;SDS011;13066;52.042;5.648;2022-08-19T01:31:27;7.95;;;6.22;;
25073;SDS011;13066;52.042;5.648;2022-08-19T01:33:58;10.65;;;6.60;;
25073;SDS011;13066;52.042;5.648;2022-08-19T01:36:29;13.18;;;6.93;;
25073;SDS011;13066;52.042;5.648;2022-08-19T01:39:00;9.60;;;6.90;;
25073;SDS011;13066;52.042;5.648;2022-08-19T01:41:30;8.38;;;7.00;;
25073;SDS011;13066;52.042;5.648;2022-08-19T01:43:59;10.95;;;6.70;;
25073;SDS011;13066;52.042;5.648;2022-08-19T01:46:44;8.88;;;6.25;;
25073;SDS011;13066;52.042;5.648;2022-08-19T01:49:13;9.07;;;7.03;;
25073;SDS011;13066;52.042;5.648;2022-08-19T01:51:42;10.52;;;7.18;;
25073;SDS011;13066;52.042;5.648;2022-08-19T01:54:13;9.43;;;7.03;;
25073;SDS011;13066;52.042;5.648;2022-08-19T01:56:53;12.23;;;6.85;;
25073;SDS011;13066;52.042;5.648;2022-08-19T01:59:24;9.10;;;7.13;;
25073;SDS011;13066;52.042;5.648;2022-08-19T02:01:53;17.90;;;7.97;;
25073;SDS011;13066;52.042;5.648;2022-08-19T02:04:21;11.40;;;7.63;;
25073;SDS011;13066;52.042;5.648;2022-08-19T02:06:51;11.73;;;7.40;;
25073;SDS011;13066;52.042;5.648;2022-08-19T02:09:21;10.63;;;7.45;;
25073;SDS011;13066;52.042;5.648;2022-08-19T02:11:49;10.38;;;7.22;;
25073;SDS011;13066;52.042;5.648;2022-08-19T02:14:17;11.30;;;7.90;;
25073;SDS011;13066;52.042;5.648;2022-08-19T02:16:45;13.95;;;8.18;;
25073;SDS011;13066;52.042;5.648;2022-08-19T02:19:13;8.27;;;7.38;;
25073;SDS011;13066;52.042;5.648;2022-08-19T02:21:41;11.68;;;7.45;;
25073;SDS011;13066;52.042;5.648;2022-08-19T02:24:10;13.05;;;8.10;;
25073;SDS011;13066;52.042;5.648;2022-08-19T02:26:40;10.00;;;8.02;;
25073;SDS011;13066;52.042;5.648;2022-08-19T02:29:08;11.77;;;8.38;;
25073;SDS011;13066;52.042;5.648;2022-08-19T02:31:36;12.52;;;8.70;;
25073;SDS011;13066;52.042;5.648;2022-08-19T02:34:04;12.43;;;8.77;;
25073;SDS011;13066;52.042;5.648;2022-08-19T02:36:32;13.52;;;8.90;;
25073;SDS011;13066;52.042;5.648;2022-08-19T02:39:00;13.15;;;9.27;;
25073;SDS011;13066;52.042;5.648;2022-08-19T02:41:29;13.40;;;9.00;;
25073;SDS011;13066;52.042;5.648;2022-08-19T02:44:01;13.35;;;9.60;;
25073;SDS011;13066;52.042;5.648;2022-08-19T02:46:50;14.20;;;9.52;;
25073;SDS011;13066;52.042;5.648;2022-08-19T02:49:18;11.90;;;8.73;;
25073;SDS011;13066;52.042;5.648;2022-08-19T02:51:46;15.38;;;9.20;;
25073;SDS011;13066;52.042;5.648;2022-08-19T02:54:15;11.30;;;8.88;;
25073;SDS011;13066;52.042;5.648;2022-08-19T02:56:43;16.88;;;9.45;;
25073;SDS011;13066;52.042;5.648;2022-08-19T02:59:13;13.60;;;9.50;;
25073;SDS011;13066;52.042;5.648;2022-08-19T03:01:41;12.25;;;9.52;;
25073;SDS011;13066;52.042;5.648;2022-08-19T03:04:11;18.75;;;9.95;;
25073;SDS011;13066;52.042;5.648;2022-08-19T03:06:41;13.88;;;9.35;;
25073;SDS011;13066;52.042;5.648;2022-08-19T03:09:11;17.20;;;10.40;;
25073;SDS011;13066;52.042;5.648;2022-08-19T03:11:40;14.63;;;10.57;;
25073;SDS011;13066;52.042;5.648;2022-08-19T03:14:08;14.68;;;9.80;;
25073;SDS011;13066;52.042;5.648;2022-08-19T03:16:42;14.27;;;10.73;;
25073;SDS011;13066;52.042;5.648;2022-08-19T03:19:11;14.25;;;9.85;;
25073;SDS011;13066;52.042;5.648;2022-08-19T03:21:41;14.40;;;10.25;;
25073;SDS011;13066;52.042;5.648;2022-08-19T03:24:11;12.57;;;9.48;;
25073;SDS011;13066;52.042;5.648;2022-08-19T03:26:41;16.35;;;9.48;;
25073;SDS011;13066;52.042;5.648;2022-08-19T03:31:57;14.27;;;9.82;;
25073;SDS011;13066;52.042;5.648;2022-08-19T03:34:30;15.40;;;10.45;;
25073;SDS011;13066;52.042;5.648;2022-08-19T03:37:03;13.20;;;10.32;;
25073;SDS011;13066;52.042;5.648;2022-08-19T03:39:35;13.23;;;9.43;;
25073;SDS011;13066;52.042;5.648;2022-08-19T03:42:05;14.93;;;11.27;;
25073;SDS011;13066;52.042;5.648;2022-08-19T03:44:53;12.80;;;9.63;;
25073;SDS011;13066;52.042;5.648;2022-08-19T03:47:22;14.00;;;9.75;;
25073;SDS011;13066;52.042;5.648;2022-08-19T03:49:52;18.38;;;10.70;;
25073;SDS011;13066;52.042;5.648;2022-08-19T03:52:20;13.95;;;10.27;;
25073;SDS011;13066;52.042;5.648;2022-08-19T03:54:48;17.42;;;11.10;;
25073;SDS011;13066;52.042;5.648;2022-08-19T03:57:16;14.23;;;10.25;;
25073;SDS011;13066;52.042;5.648;2022-08-19T03:59:44;16.45;;;11.15;;
25073;SDS011;13066;52.042;5.648;2022-08-19T04:02:13;15.32;;;10.10;;
25073;SDS011;13066;52.042;5.648;2022-08-19T04:04:43;13.60;;;9.68;;
25073;SDS011;13066;52.042;5.648;2022-08-19T04:07:12;14.25;;;9.10;;
25073;SDS011;13066;52.042;5.648;2022-08-19T04:09:42;15.25;;;9.98;;
25073;SDS011;13066;52.042;5.648;2022-08-19T04:12:10;13.40;;;9.65;;
25073;SDS011;13066;52.042;5.648;2022-08-19T04:14:38;14.00;;;9.90;;
25073;SDS011;13066;52.042;5.648;2022-08-19T04:17:07;13.27;;;10.18;;
25073;SDS011;13066;52.042;5.648;2022-08-19T04:19:35;14.23;;;9.88;;
25073;SDS011;13066;52.042;5.648;2022-08-19T04:22:06;15.15;;;9.82;;
25073;SDS011;13066;52.042;5.648;2022-08-19T04:24:34;16.38;;;10.35;;
25073;SDS011;13066;52.042;5.648;2022-08-19T04:27:02;18.42;;;10.57;;
25073;SDS011;13066;52.042;5.648;2022-08-19T04:29:31;14.85;;;9.98;;
25073;SDS011;13066;52.042;5.648;2022-08-19T04:32:00;14.15;;;9.60;;
25073;SDS011;13066;52.042;5.648;2022-08-19T04:37:24;15.70;;;9.65;;
25073;SDS011;13066;52.042;5.648;2022-08-19T04:39:57;13.70;;;10.20;;
25073;SDS011;13066;52.042;5.648;2022-08-19T04:42:42;15.20;;;9.32;;
25073;SDS011;13066;52.042;5.648;2022-08-19T04:45:12;13.63;;;9.68;;
25073;SDS011;13066;52.042;5.648;2022-08-19T04:47:43;13.85;;;10.05;;
25073;SDS011;13066;52.042;5.648;2022-08-19T04:50:24;16.63;;;10.07;;
25073;SDS011;13066;52.042;5.648;2022-08-19T04:52:53;16.90;;;10.23;;
25073;SDS011;13066;52.042;5.648;2022-08-19T04:55:22;15.15;;;10.13;;
25073;SDS011;13066;52.042;5.648;2022-08-19T04:57:51;14.30;;;10.63;;
25073;SDS011;13066;52.042;5.648;2022-08-19T05:00:20;15.60;;;9.88;;
25073;SDS011;13066;52.042;5.648;2022-08-19T05:02:48;18.08;;;10.38;;
25073;SDS011;13066;52.042;5.648;2022-08-19T05:05:17;15.32;;;10.65;;
25073;SDS011;13066;52.042;5.648;2022-08-19T05:07:46;15.40;;;10.90;;
25073;SDS011;13066;52.042;5.648;2022-08-19T05:10:15;18.25;;;11.48;;
25073;SDS011;13066;52.042;5.648;2022-08-19T05:12:44;15.25;;;11.18;;
25073;SDS011;13066;52.042;5.648;2022-08-19T05:15:12;15.10;;;11.32;;
25073;SDS011;13066;52.042;5.648;2022-08-19T05:17:40;17.50;;;11.20;;
25073;SDS011;13066;52.042;5.648;2022-08-19T05:20:29;15.23;;;11.27;;
25073;SDS011;13066;52.042;5.648;2022-08-19T05:23:15;18.25;;;11.55;;
25073;SDS011;13066;52.042;5.648;2022-08-19T05:25:49;17.10;;;11.27;;
25073;SDS011;13066;52.042;5.648;2022-08-19T05:28:18;16.05;;;11.07;;
25073;SDS011;13066;52.042;5.648;2022-08-19T05:30:46;18.95;;;11.13;;
25073;SDS011;13066;52.042;5.648;2022-08-19T05:33:17;14.48;;;11.60;;
25073;SDS011;13066;52.042;5.648;2022-08-19T05:35:46;18.80;;;12.02;;
25073;SDS011;13066;52.042;5.648;2022-08-19T05:38:15;22.23;;;13.35;;
25073;SDS011;13066;52.042;5.648;2022-08-19T05:40:44;17.20;;;12.73;;
25073;SDS011;13066;52.042;5.648;2022-08-19T05:43:15;17.48;;;12.48;;
25073;SDS011;13066;52.042;5.648;2022-08-19T05:45:43;20.15;;;13.30;;
25073;SDS011;13066;52.042;5.648;2022-08-19T05:48:11;20.98;;;13.85;;
25073;SDS011;13066;52.042;5.648;2022-08-19T05:50:41;20.45;;;13.88;;
25073;SDS011;13066;52.042;5.648;2022-08-19T05:53:11;22.95;;;14.35;;
25073;SDS011;13066;52.042;5.648;2022-08-19T05:55:42;25.85;;;15.13;;
25073;SDS011;13066;52.042;5.648;2022-08-19T05:58:10;24.50;;;15.05;;
25073;SDS011;13066;52.042;5.648;2022-08-19T06:00:40;30.77;;;17.05;;
25073;SDS011;13066;52.042;5.648;2022-08-19T06:03:11;25.73;;;16.50;;
25073;SDS011;13066;52.042;5.648;2022-08-19T06:05:39;29.05;;;16.10;;
25073;SDS011;13066;52.042;5.648;2022-08-19T06:08:17;30.17;;;18.05;;
25073;SDS011;13066;52.042;5.648;2022-08-19T06:11:10;29.73;;;16.70;;
25073;SDS011;13066;52.042;5.648;2022-08-19T06:13:41;26.02;;;18.00;;
25073;SDS011;13066;52.042;5.648;2022-08-19T06:16:11;32.72;;;18.30;;
25073;SDS011;13066;52.042;5.648;2022-08-19T06:18:48;32.97;;;20.20;;
25073;SDS011;13066;52.042;5.648;2022-08-19T06:21:18;32.15;;;18.65;;
25073;SDS011;13066;52.042;5.648;2022-08-19T06:23:48;34.63;;;20.50;;
25073;SDS011;13066;52.042;5.648;2022-08-19T06:26:17;37.55;;;19.80;;
25073;SDS011;13066;52.042;5.648;2022-08-19T06:28:47;37.83;;;21.42;;
25073;SDS011;13066;52.042;5.648;2022-08-19T06:31:17;37.80;;;21.15;;
25073;SDS011;13066;52.042;5.648;2022-08-19T06:33:49;39.92;;;22.08;;
25073;SDS011;13066;52.042;5.648;2022-08-19T06:36:19;45.42;;;24.20;;
25073;SDS011;13066;52.042;5.648;2022-08-19T06:38:51;50.27;;;25.17;;
25073;SDS011;13066;52.042;5.648;2022-08-19T06:41:19;46.25;;;25.52;;
25073;SDS011;13066;52.042;5.648;2022-08-19T06:43:47;55.25;;;26.30;;
25073;SDS011;13066;52.042;5.648;2022-08-19T06:46:21;57.03;;;27.35;;
25073;SDS011;13066;52.042;5.648;2022-08-19T06:48:49;61.33;;;28.30;;
25073;SDS011;13066;52.042;5.648;2022-08-19T06:51:20;62.30;;;30.02;;
25073;SDS011;13066;52.042;5.648;2022-08-19T06:53:51;72.93;;;31.05;;
25073;SDS011;13066;52.042;5.648;2022-08-19T06:56:21;69.25;;;30.70;;
25073;SDS011;13066;52.042;5.648;2022-08-19T06:58:57;76.72;;;33.00;;
25073;SDS011;13066;52.042;5.648;2022-08-19T07:01:27;76.32;;;32.55;;
25073;SDS011;13066;52.042;5.648;2022-08-19T07:03:56;70.93;;;31.73;;
25073;SDS011;13066;52.042;5.648;2022-08-19T07:06:24;77.45;;;34.55;;
25073;SDS011;13066;52.042;5.648;2022-08-19T07:09:10;68.80;;;32.55;;
25073;SDS011;13066;52.042;5.648;2022-08-19T07:14:13;75.15;;;33.33;;
25073;SDS011;13066;52.042;5.648;2022-08-19T07:16:47;75.45;;;34.65;;
25073;SDS011;13066;52.042;5.648;2022-08-19T07:19:17;81.20;;;37.53;;
25073;SDS011;13066;52.042;5.648;2022-08-19T07:21:46;85.65;;;37.55;;
25073;SDS011;13066;52.042;5.648;2022-08-19T07:24:17;77.00;;;35.72;;
25073;SDS011;13066;52.042;5.648;2022-08-19T07:26:46;73.53;;;37.22;;
25073;SDS011;13066;52.042;5.648;2022-08-19T07:29:18;80.18;;;36.20;;
25073;SDS011;13066;52.042;5.648;2022-08-19T07:31:51;80.00;;;38.28;;
25073;SDS011;13066;52.042;5.648;2022-08-19T07:34:25;85.53;;;36.83;;
25073;SDS011;13066;52.042;5.648;2022-08-19T07:36:55;77.18;;;37.33;;
25073;SDS011;13066;52.042;5.648;2022-08-19T07:39:25;81.15;;;37.92;;
25073;SDS011;13066;52.042;5.648;2022-08-19T07:41:56;73.63;;;38.22;;
25073;SDS011;13066;52.042;5.648;2022-08-19T07:44:26;85.68;;;38.97;;
25073;SDS011;13066;52.042;5.648;2022-08-19T07:46:56;82.03;;;39.58;;
25073;SDS011;13066;52.042;5.648;2022-08-19T07:49:26;67.45;;;35.13;;
25073;SDS011;13066;52.042;5.648;2022-08-19T07:51:57;71.50;;;35.00;;
25073;SDS011;13066;52.042;5.648;2022-08-19T07:54:28;72.78;;;36.08;;
25073;SDS011;13066;52.042;5.648;2022-08-19T07:57:00;74.90;;;35.60;;
25073;SDS011;13066;52.042;5.648;2022-08-19T07:59:30;74.90;;;38.67;;
25073;SDS011;13066;52.042;5.648;2022-08-19T08:02:00;81.60;;;38.95;;
25073;SDS011;13066;52.042;5.648;2022-08-19T08:04:29;76.40;;;37.63;;
25073;SDS011;13066;52.042;5.648;2022-08-19T08:07:15;77.10;;;36.65;;
25073;SDS011;13066;52.042;5.648;2022-08-19T08:10:02;73.85;;;36.00;;
25073;SDS011;13066;52.042;5.648;2022-08-19T08:12:40;68.15;;;34.92;;
25073;SDS011;13066;52.042;5.648;2022-08-19T08:15:29;70.25;;;33.33;;
25073;SDS011;13066;52.042;5.648;2022-08-19T08:17:59;66.93;;;35.30;;
25073;SDS011;13066;52.042;5.648;2022-08-19T08:20:28;72.15;;;35.75;;
25073;SDS011;13066;52.042;5.648;2022-08-19T08:22:57;73.40;;;35.90;;
25073;SDS011;13066;52.042;5.648;2022-08-19T08:25:42;66.35;;;33.65;;
25073;SDS011;13066;52.042;5.648;2022-08-19T08:28:14;63.03;;;33.22;;
25073;SDS011;13066;52.042;5.648;2022-08-19T08:30:43;65.07;;;34.10;;
25073;SDS011;13066;52.042;5.648;2022-08-19T08:33:16;62.47;;;34.25;;
25073;SDS011;13066;52.042;5.648;2022-08-19T08:36:00;66.00;;;32.45;;
25073;SDS011;13066;52.042;5.648;2022-08-19T08:38:29;65.97;;;32.88;;
25073;SDS011;13066;52.042;5.648;2022-08-19T08:41:05;60.22;;;30.75;;
25073;SDS011;13066;52.042;5.648;2022-08-19T08:43:46;59.40;;;30.85;;
25073;SDS011;13066;52.042;5.648;2022-08-19T08:46:19;56.75;;;28.88;;
25073;SDS011;13066;52.042;5.648;2022-08-19T08:48:59;53.88;;;26.38;;
25073;SDS011;13066;52.042;5.648;2022-08-19T08:51:36;51.20;;;27.23;;
25073;SDS011;13066;52.042;5.648;2022-08-19T08:54:10;50.38;;;26.02;;
25073;SDS011;13066;52.042;5.648;2022-08-19T08:56:40;48.38;;;26.85;;
25073;SDS011;13066;52.042;5.648;2022-08-19T08:59:12;47.97;;;25.25;;
25073;SDS011;13066;52.042;5.648;2022-08-19T09:01:50;52.90;;;24.77;;
25073;SDS011;13066;52.042;5.648;2022-08-19T09:04:22;52.00;;;26.08;;
25073;SDS011;13066;52.042;5.648;2022-08-19T09:06:51;44.38;;;25.40;;
25073;SDS011;13066;52.042;5.648;2022-08-19T09:09:26;44.85;;;23.40;;
25073;SDS011;13066;52.042;5.648;2022-08-19T09:12:04;48.00;;;22.50;;
25073;SDS011;13066;52.042;5.648;2022-08-19T09:14:39;41.92;;;23.75;;
25073;SDS011;13066;52.042;5.648;2022-08-19T09:17:17;44.33;;;23.55;;
25073;SDS011;13066;52.042;5.648;2022-08-19T09:19:50;42.15;;;23.38;;
25073;SDS011;13066;52.042;5.648;2022-08-19T09:22:20;52.88;;;22.85;;
25073;SDS011;13066;52.042;5.648;2022-08-19T09:24:51;43.00;;;22.65;;
25073;SDS011;13066;52.042;5.648;2022-08-19T09:27:20;41.00;;;22.20;;
25073;SDS011;13066;52.042;5.648;2022-08-19T09:30:08;36.33;;;21.30;;
25073;SDS011;13066;52.042;5.648;2022-08-19T09:32:39;41.70;;;21.17;;
25073;SDS011;13066;52.042;5.648;2022-08-19T09:35:11;38.72;;;21.40;;
25073;SDS011;13066;52.042;5.648;2022-08-19T09:37:41;37.58;;;20.48;;
25073;SDS011;13066;52.042;5.648;2022-08-19T09:40:10;42.10;;;21.50;;
25073;SDS011;13066;52.042;5.648;2022-08-19T09:42:40;35.17;;;19.67;;
25073;SDS011;13066;52.042;5.648;2022-08-19T09:45:16;43.97;;;20.77;;
25073;SDS011;13066;52.042;5.648;2022-08-19T09:47:48;37.25;;;20.60;;
25073;SDS011;13066;52.042;5.648;2022-08-19T09:50:21;33.25;;;19.13;;
25073;SDS011;13066;52.042;5.648;2022-08-19T09:52:51;32.47;;;18.70;;
25073;SDS011;13066;52.042;5.648;2022-08-19T09:55:23;43.30;;;21.10;;
25073;SDS011;13066;52.042;5.648;2022-08-19T09:57:58;39.35;;;20.80;;
25073;SDS011;13066;52.042;5.648;2022-08-19T10:00:27;32.63;;;18.58;;
25073;SDS011;13066;52.042;5.648;2022-08-19T10:02:56;38.20;;;19.55;;
25073;SDS011;13066;52.042;5.648;2022-08-19T10:05:27;37.88;;;19.45;;
25073;SDS011;13066;52.042;5.648;2022-08-19T10:08:14;39.00;;;19.35;;
25073;SDS011;13066;52.042;5.648;2022-08-19T10:10:47;30.52;;;18.50;;
25073;SDS011;13066;52.042;5.648;2022-08-19T10:13:17;37.78;;;18.77;;
25073;SDS011;13066;52.042;5.648;2022-08-19T10:15:48;27.63;;;17.05;;
25073;SDS011;13066;52.042;5.648;2022-08-19T10:18:17;30.25;;;17.67;;
25073;SDS011;13066;52.042;5.648;2022-08-19T10:20:48;33.88;;;18.33;;
25073;SDS011;13066;52.042;5.648;2022-08-19T10:23:19;31.42;;;17.88;;
25073;SDS011;13066;52.042;5.648;2022-08-19T10:25:48;28.90;;;15.88;;
25073;SDS011;13066;52.042;5.648;2022-08-19T10:28:19;27.02;;;16.17;;
25073;SDS011;13066;52.042;5.648;2022-08-19T10:30:49;34.38;;;17.67;;
25073;SDS011;13066;52.042;5.648;2022-08-19T10:33:17;27.33;;;15.20;;
25073;SDS011;13066;52.042;5.648;2022-08-19T10:36:08;30.00;;;16.10;;
25073;SDS011;13066;52.042;5.648;2022-08-19T10:38:38;24.80;;;14.68;;
25073;SDS011;13066;52.042;5.648;2022-08-19T10:41:20;34.85;;;15.05;;
25073;SDS011;13066;52.042;5.648;2022-08-19T10:43:50;22.33;;;13.85;;
25073;SDS011;13066;52.042;5.648;2022-08-19T10:46:21;24.20;;;13.10;;
25073;SDS011;13066;52.042;5.648;2022-08-19T10:48:50;27.55;;;13.90;;
25073;SDS011;13066;52.042;5.648;2022-08-19T10:51:20;26.17;;;14.07;;
25073;SDS011;13066;52.042;5.648;2022-08-19T10:54:13;27.23;;;15.65;;
25073;SDS011;13066;52.042;5.648;2022-08-19T10:56:41;23.65;;;14.27;;
25073;SDS011;13066;52.042;5.648;2022-08-19T10:59:18;23.73;;;14.27;;
25073;SDS011;13066;52.042;5.648;2022-08-19T11:01:52;28.67;;;15.45;;
25073;SDS011;13066;52.042;5.648;2022-08-19T11:04:22;32.15;;;14.40;;
25073;SDS011;13066;52.042;5.648;2022-08-19T11:06:56;27.05;;;14.63;;
25073;SDS011;13066;52.042;5.648;2022-08-19T11:09:24;29.90;;;14.35;;
25073;SDS011;13066;52.042;5.648;2022-08-19T11:11:59;33.17;;;15.63;;
25073;SDS011;13066;52.042;5.648;2022-08-19T11:14:29;35.95;;;15.75;;
25073;SDS011;13066;52.042;5.648;2022-08-19T11:16:59;27.73;;;15.15;;
25073;SDS011;13066;52.042;5.648;2022-08-19T11:19:28;30.13;;;16.00;;
25073;SDS011;13066;52.042;5.648;2022-08-19T11:21:59;28.55;;;14.13;;
25073;SDS011;13066;52.042;5.648;2022-08-19T11:24:30;36.55;;;14.55;;
25073;SDS011;13066;52.042;5.648;2022-08-19T11:27:05;28.85;;;15.30;;
25073;SDS011;13066;52.042;5.648;2022-08-19T11:29:37;29.75;;;15.70;;
25073;SDS011;13066;52.042;5.648;2022-08-19T11:32:06;27.92;;;15.30;;
25073;SDS011;13066;52.042;5.648;2022-08-19T11:34:39;27.60;;;15.85;;
25073;SDS011;13066;52.042;5.648;2022-08-19T11:37:08;27.73;;;15.30;;
25073;SDS011;13066;52.042;5.648;2022-08-19T11:39:36;28.92;;;16.25;;
25073;SDS011;13066;52.042;5.648;2022-08-19T11:42:05;26.27;;;16.48;;
25073;SDS011;13066;52.042;5.648;2022-08-19T11:44:49;32.17;;;16.33;;
25073;SDS011;13066;52.042;5.648;2022-08-19T11:47:17;27.45;;;15.52;;
25073;SDS011;13066;52.042;5.648;2022-08-19T11:49:45;31.80;;;18.27;;
25073;SDS011;13066;52.042;5.648;2022-08-19T11:55:01;30.92;;;18.70;;
25073;SDS011;13066;52.042;5.648;2022-08-19T11:57:30;29.10;;;17.98;;
25073;SDS011;13066;52.042;5.648;2022-08-19T11:59:58;31.58;;;17.33;;
25073;SDS011;13066;52.042;5.648;2022-08-19T12:02:27;26.00;;;17.02;;
25073;SDS011;13066;52.042;5.648;2022-08-19T12:04:56;25.05;;;17.85;;
25073;SDS011;13066;52.042;5.648;2022-08-19T12:07:24;37.33;;;18.73;;
25073;SDS011;13066;52.042;5.648;2022-08-19T12:09:53;27.77;;;17.42;;
25073;SDS011;13066;52.042;5.648;2022-08-19T12:12:22;34.70;;;17.42;;
25073;SDS011;13066;52.042;5.648;2022-08-19T12:14:51;27.58;;;16.88;;
25073;SDS011;13066;52.042;5.648;2022-08-19T12:17:22;36.80;;;17.95;;
25073;SDS011;13066;52.042;5.648;2022-08-19T12:19:51;31.50;;;18.48;;
25073;SDS011;13066;52.042;5.648;2022-08-19T12:22:20;29.08;;;17.50;;
25073;SDS011;13066;52.042;5.648;2022-08-19T12:24:48;29.38;;;18.33;;
25073;SDS011;13066;52.042;5.648;2022-08-19T12:27:20;31.35;;;17.30;;
25073;SDS011;13066;52.042;5.648;2022-08-19T12:30:09;33.03;;;18.27;;
25073;SDS011;13066;52.042;5.648;2022-08-19T12:32:39;29.95;;;17.67;;
25073;SDS011;13066;52.042;5.648;2022-08-19T12:35:07;33.70;;;18.00;;
25073;SDS011;13066;52.042;5.648;2022-08-19T12:37:37;28.42;;;17.17;;
25073;SDS011;13066;52.042;5.648;2022-08-19T12:40:22;32.97;;;20.20;;
25073;SDS011;13066;52.042;5.648;2022-08-19T12:42:53;35.30;;;18.65;;
25073;SDS011;13066;52.042;5.648;2022-08-19T12:45:22;33.75;;;18.33;;
25073;SDS011;13066;52.042;5.648;2022-08-19T12:47:50;35.30;;;18.77;;
25073;SDS011;13066;52.042;5.648;2022-08-19T12:50:20;29.23;;;19.05;;
25073;SDS011;13066;52.042;5.648;2022-08-19T12:52:49;32.00;;;19.02;;
25073;SDS011;13066;52.042;5.648;2022-08-19T12:55:19;22.95;;;16.35;;
25073;SDS011;13066;52.042;5.648;2022-08-19T12:57:47;30.75;;;17.88;;
25073;SDS011;13066;52.042;5.648;2022-08-19T13:00:19;33.92;;;17.58;;
25073;SDS011;13066;52.042;5.648;2022-08-19T13:02:49;30.95;;;17.75;;
25073;SDS011;13066;52.042;5.648;2022-08-19T13:05:20;28.98;;;17.95;;
25073;SDS011;13066;52.042;5.648;2022-08-19T13:07:50;28.45;;;18.13;;
25073;SDS011;13066;52.042;5.648;2022-08-19T13:10:22;30.67;;;17.98;;
25073;SDS011;13066;52.042;5.648;2022-08-19T13:12:52;28.60;;;18.63;;
25073;SDS011;13066;52.042;5.648;2022-08-19T13:15:23;27.33;;;18.20;;
25073;SDS011;13066;52.042;5.648;2022-08-19T13:17:52;29.73;;;17.70;;
25073;SDS011;13066;52.042;5.648;2022-08-19T13:20:22;33.05;;;19.13;;
25073;SDS011;13066;52.042;5.648;2022-08-19T13:22:51;30.35;;;16.48;;
25073;SDS011;13066;52.042;5.648;2022-08-19T13:25:20;27.30;;;15.32;;
25073;SDS011;13066;52.042;5.648;2022-08-19T13:27:48;27.63;;;17.00;;
25073;SDS011;13066;52.042;5.648;2022-08-19T13:30:18;23.77;;;15.93;;
25073;SDS011;13066;52.042;5.648;2022-08-19T13:33:06;25.90;;;16.05;;
25073;SDS011;13066;52.042;5.648;2022-08-19T13:35:42;28.75;;;17.90;;
25073;SDS011;13066;52.042;5.648;2022-08-19T13:38:13;30.48;;;18.50;;
25073;SDS011;13066;52.042;5.648;2022-08-19T13:40:42;29.45;;;18.52;;
25073;SDS011;13066;52.042;5.648;2022-08-19T13:43:11;33.58;;;19.38;;
25073;SDS011;13066;52.042;5.648;2022-08-19T13:45:49;34.88;;;19.80;;
25073;SDS011;13066;52.042;5.648;2022-08-19T13:48:20;30.70;;;19.80;;
25073;SDS011;13066;52.042;5.648;2022-08-19T13:50:49;34.58;;;20.75;;
25073;SDS011;13066;52.042;5.648;2022-08-19T13:53:18;38.13;;;21.52;;
25073;SDS011;13066;52.042;5.648;2022-08-19T13:55:46;39.25;;;20.42;;
25073;SDS011;13066;52.042;5.648;2022-08-19T13:58:16;33.10;;;22.85;;
25073;SDS011;13066;52.042;5.648;2022-08-19T14:00:45;35.95;;;20.30;;
25073;SDS011;13066;52.042;5.648;2022-08-19T14:03:14;34.45;;;20.42;;
25073;SDS011;13066;52.042;5.648;2022-08-19T14:05:44;34.80;;;20.70;;
25073;SDS011;13066;52.042;5.648;2022-08-19T14:08:13;33.65;;;19.85;;
25073;SDS011;13066;52.042;5.648;2022-08-19T14:10:41;33.55;;;19.00;;
25073;SDS011;13066;52.042;5.648;2022-08-19T14:13:12;31.80;;;18.80;;
25073;SDS011;13066;52.042;5.648;2022-08-19T14:15:42;31.67;;;19.05;;
25073;SDS011;13066;52.042;5.648;2022-08-19T14:18:10;31.35;;;19.45;;
25073;SDS011;13066;52.042;5.648;2022-08-19T14:20:39;34.80;;;20.20;;
25073;SDS011;13066;52.042;5.648;2022-08-19T14:23:16;31.77;;;19.02;;
25073;SDS011;13066;52.042;5.648;2022-08-19T14:25:45;27.63;;;18.65;;
25073;SDS011;13066;52.042;5.648;2022-08-19T14:28:13;39.42;;;19.13;;
25073;SDS011;13066;52.042;5.648;2022-08-19T14:30:43;31.52;;;18.25;;
25073;SDS011;13066;52.042;5.648;2022-08-19T14:33:12;36.63;;;18.77;;
25073;SDS011;13066;52.042;5.648;2022-08-19T14:35:45;24.27;;;15.95;;
25073;SDS011;13066;52.042;5.648;2022-08-19T14:38:14;17.87;;;9.63;;
25073;SDS011;13066;52.042;5.648;2022-08-19T14:41:05;16.23;;;9.98;;
25073;SDS011;13066;52.042;5.648;2022-08-19T14:43:35;13.32;;;9.38;;
25073;SDS011;13066;52.042;5.648;2022-08-19T14:46:04;14.85;;;9.55;;
25073;SDS011;13066;52.042;5.648;2022-08-19T14:48:35;18.88;;;9.93;;
25073;SDS011;13066;52.042;5.648;2022-08-19T14:51:06;20.88;;;9.73;;
25073;SDS011;13066;52.042;5.648;2022-08-19T14:53:37;14.93;;;9.77;;
25073;SDS011;13066;52.042;5.648;2022-08-19T14:56:08;15.90;;;10.23;;
25073;SDS011;13066;52.042;5.648;2022-08-19T14:58:37;21.17;;;9.27;;
25073;SDS011;13066;52.042;5.648;2022-08-19T15:01:07;13.77;;;8.85;;
25073;SDS011;13066;52.042;5.648;2022-08-19T15:03:36;13.02;;;9.63;;